createdAt,value
2022-08-07T00:01:12.516Z,2.58
2022-08-07T00:03:55.173Z,2.22
2022-08-07T00:06:29.434Z,2.55
2022-08-07T00:09:17.219Z,2.65
2022-08-07T00:11:55.494Z,2.75
2022-08-07T00:14:30.074Z,2.53
2022-08-07T00:17:00.563Z,2.20
2022-08-07T00:20:00.447Z,3.05
2022-08-07T00:22:24.526Z,2.65
2022-08-07T00:25:02.711Z,2.38
2022-08-07T00:27:51.804Z,2.55
2022-08-07T00:30:27.505Z,2.70
2022-08-07T00:32:57.149Z,3.35
2022-08-07T00:35:24.348Z,2.72
2022-08-07T00:37:51.453Z,2.90
2022-08-07T00:40:36.311Z,2.33
2022-08-07T00:43:09.653Z,2.50
2022-08-07T00:45:39.517Z,2.93
2022-08-07T00:48:11.067Z,2.80
2022-08-07T00:50:46.587Z,2.80
2022-08-07T00:53:20.923Z,2.78
2022-08-07T00:56:00.537Z,2.05
2022-08-07T00:58:30.846Z,2.47
2022-08-07T01:00:59.133Z,2.70
2022-08-07T01:03:57.020Z,2.38
2022-08-07T01:06:15.787Z,2.50
2022-08-07T01:08:52.978Z,2.47
2022-08-07T01:12:10.078Z,2.40
2022-08-07T01:14:21.190Z,2.78
2022-08-07T01:16:55.558Z,2.13
2022-08-07T01:19:25.126Z,1.88
2022-08-07T01:21:55.207Z,1.95
2022-08-07T01:24:23.310Z,1.98
2022-08-07T01:26:54.376Z,2.20
2022-08-07T01:29:27.691Z,2.20
2022-08-07T01:31:59.360Z,2.30
2022-08-07T01:34:31.118Z,2.13
2022-08-07T01:36:58.762Z,2.08
2022-08-07T01:39:40.718Z,1.98
2022-08-07T01:42:40.308Z,2.25
2022-08-07T01:45:05.291Z,1.88
2022-08-07T01:48:29.394Z,1.92
2022-08-07T01:50:29.135Z,1.95
2022-08-07T01:52:59.902Z,1.77
2022-08-07T01:55:38.099Z,2.20
2022-08-07T01:58:29.160Z,1.58
2022-08-07T02:01:10.385Z,1.92
2022-08-07T02:04:02.534Z,2.00
2022-08-07T02:06:35.625Z,2.10
2022-08-07T02:09:08.355Z,1.73
2022-08-07T02:12:03.923Z,2.10
2022-08-07T02:14:40.748Z,1.95
2022-08-07T02:17:10.998Z,1.85
2022-08-07T02:20:04.850Z,1.90
2022-08-07T02:22:32.128Z,1.55
2022-08-07T02:25:00.092Z,1.98
2022-08-07T02:27:34.655Z,1.90
2022-08-07T02:30:07.287Z,2.03
2022-08-07T02:32:39.698Z,1.75
2022-08-07T02:36:29.538Z,1.85
2022-08-07T02:38:16.610Z,1.90
2022-08-07T02:40:46.457Z,1.85
2022-08-07T02:43:15.862Z,2.45
2022-08-07T02:46:00.491Z,2.00
2022-08-07T02:48:30.936Z,2.20
2022-08-07T02:51:02.044Z,2.28
2022-08-07T02:53:38.594Z,2.17
2022-08-07T02:56:17.588Z,2.10
2022-08-07T02:58:54.183Z,2.25
2022-08-07T03:01:35.779Z,2.10
2022-08-07T03:04:07.123Z,2.50
2022-08-07T03:06:37.167Z,3.05
2022-08-07T03:09:10.976Z,2.47
2022-08-07T03:11:52.684Z,3.40
2022-08-07T03:14:27.858Z,2.97
2022-08-07T03:16:56.818Z,5.03
2022-08-07T03:19:28.897Z,3.85
2022-08-07T03:21:57.322Z,3.20
2022-08-07T03:24:27.769Z,3.70
2022-08-07T03:27:00.817Z,2.90
2022-08-07T03:32:08.363Z,3.05
2022-08-07T03:34:47.199Z,2.95
2022-08-07T03:37:32.573Z,3.45
2022-08-07T03:40:14.852Z,3.47
2022-08-07T03:42:44.457Z,2.90
2022-08-07T03:45:12.634Z,3.05
2022-08-07T03:47:58.196Z,3.47
2022-08-07T03:50:28.697Z,3.47
2022-08-07T03:52:59.391Z,2.90
2022-08-07T03:55:48.724Z,3.55
2022-08-07T03:59:04.834Z,3.20
2022-08-07T04:01:14.492Z,3.90
2022-08-07T04:03:49.839Z,3.00
2022-08-07T04:06:37.258Z,3.55
2022-08-07T04:09:06.262Z,2.90
2022-08-07T04:12:25.501Z,2.78
2022-08-07T04:14:39.036Z,2.95
2022-08-07T04:17:21.235Z,2.70
2022-08-07T04:19:52.515Z,3.15
2022-08-07T04:22:28.905Z,3.15
2022-08-07T04:25:00.954Z,2.95
2022-08-07T04:27:35.668Z,3.33
2022-08-07T04:30:04.901Z,3.33
2022-08-07T04:32:38.047Z,3.53
2022-08-07T04:35:11.479Z,3.55
2022-08-07T04:38:01.061Z,3.08
2022-08-07T04:40:30.208Z,2.90
2022-08-07T04:43:02.017Z,3.40
2022-08-07T04:45:57.702Z,3.25
2022-08-07T04:48:59.144Z,3.33
2022-08-07T04:52:00.794Z,3.50
2022-08-07T04:54:35.181Z,3.15
2022-08-07T04:58:10.761Z,3.20
2022-08-07T05:00:38.848Z,3.10
2022-08-07T05:04:00.977Z,3.55
2022-08-07T05:06:19.566Z,2.78
2022-08-07T05:09:13.174Z,2.85
2022-08-07T05:11:57.289Z,3.40
2022-08-07T05:14:54.052Z,2.72
2022-08-07T05:17:52.621Z,3.50
2022-08-07T05:20:17.817Z,3.13
2022-08-07T05:22:48.079Z,2.53
2022-08-07T05:25:37.392Z,2.92
2022-08-07T05:28:20.085Z,3.30
2022-08-07T05:33:18.026Z,3.20
2022-08-07T05:35:50.347Z,2.80
2022-08-07T05:38:59.764Z,3.10
2022-08-07T05:41:05.444Z,2.88
2022-08-07T05:43:43.481Z,3.28
2022-08-07T05:46:29.423Z,3.00
2022-08-07T05:48:59.181Z,2.58
2022-08-07T05:51:31.426Z,3.10
2022-08-07T05:54:09.649Z,2.63
2022-08-07T05:56:48.109Z,2.38
2022-08-07T05:59:20.737Z,2.97
2022-08-07T06:01:49.708Z,2.92
2022-08-07T06:04:19.968Z,3.03
2022-08-07T06:06:47.709Z,3.00
2022-08-07T06:09:45.023Z,3.08
2022-08-07T06:12:11.497Z,3.38
2022-08-07T06:14:43.364Z,2.97
2022-08-07T06:17:19.453Z,2.85
2022-08-07T06:22:35.600Z,3.45
2022-08-07T06:25:06.418Z,2.50
2022-08-07T06:27:59.852Z,2.88
2022-08-07T06:30:35.769Z,2.72
2022-08-07T06:33:10.008Z,2.80
2022-08-07T06:35:48.127Z,3.17
2022-08-07T06:38:30.349Z,2.90
2022-08-07T06:41:00.747Z,3.30
2022-08-07T06:43:39.664Z,3.03
2022-08-07T06:46:12.347Z,3.25
2022-08-07T06:48:42.089Z,3.47
2022-08-07T06:51:33.097Z,2.67
2022-08-07T06:55:27.295Z,2.67
2022-08-07T06:56:55.509Z,2.72
2022-08-07T07:00:12.532Z,2.70
2022-08-07T07:02:54.426Z,2.70
2022-08-07T07:05:12.700Z,2.33
2022-08-07T07:07:59.646Z,2.95
2022-08-07T07:10:33.550Z,2.90
2022-08-07T07:13:56.217Z,3.15
2022-08-07T07:16:09.838Z,3.05
2022-08-07T07:18:46.918Z,3.08
2022-08-07T07:22:04.181Z,2.80
2022-08-07T07:24:17.613Z,2.60
2022-08-07T07:26:52.070Z,2.90
2022-08-07T07:29:56.257Z,2.80
2022-08-07T07:32:13.855Z,2.90
2022-08-07T07:34:44.545Z,2.38
2022-08-07T07:37:21.522Z,1.88
2022-08-07T07:40:04.520Z,2.20
2022-08-07T07:42:43.645Z,2.22
2022-08-07T07:47:52.491Z,2.08
2022-08-07T07:50:32.964Z,1.90
2022-08-07T07:53:13.540Z,2.10
2022-08-07T07:55:54.816Z,1.80
2022-08-07T07:58:29.781Z,1.50
2022-08-07T08:00:58.678Z,1.80
2022-08-07T08:04:06.243Z,1.42
2022-08-07T08:06:17.787Z,1.33
2022-08-07T08:08:46.372Z,1.52
2022-08-07T08:11:17.905Z,1.58
2022-08-07T08:14:03.277Z,0.98
2022-08-07T08:16:40.575Z,1.10
2022-08-07T08:20:15.661Z,1.25
2022-08-07T08:22:20.262Z,1.10
2022-08-07T08:25:26.950Z,1.05
2022-08-07T08:28:16.801Z,1.38
2022-08-07T08:30:56.701Z,0.90
2022-08-07T08:33:33.210Z,0.80
2022-08-07T08:36:01.921Z,1.05
2022-08-07T08:38:40.493Z,1.05
2022-08-07T08:41:58.763Z,0.88
2022-08-07T08:44:47.931Z,1.00
2022-08-07T08:47:22.470Z,0.80
2022-08-07T08:50:09.583Z,0.80
2022-08-07T08:52:51.519Z,1.05
2022-08-07T08:59:06.547Z,0.82
2022-08-07T09:01:49.190Z,0.90
2022-08-07T09:04:45.385Z,0.90
2022-08-07T09:07:33.636Z,0.88
2022-08-07T09:10:21.864Z,0.90
2022-08-07T09:13:36.964Z,0.98
2022-08-07T09:16:21.900Z,1.02
2022-08-07T09:19:52.250Z,1.00
2022-08-07T09:24:32.613Z,1.00
2022-08-07T09:26:08.805Z,0.70
2022-08-07T09:30:01.730Z,0.82
2022-08-07T09:31:49.131Z,1.10
2022-08-07T09:34:41.492Z,1.02
2022-08-07T09:37:19.140Z,0.90
2022-08-07T09:39:55.162Z,0.90
2022-08-07T09:42:51.292Z,0.68
2022-08-07T09:47:52.605Z,1.23
2022-08-07T09:49:59.484Z,0.90
2022-08-07T09:52:10.680Z,1.20
2022-08-07T09:54:30.227Z,0.90
2022-08-07T09:57:05.065Z,0.85
2022-08-07T10:00:09.345Z,1.00
2022-08-07T10:02:56.903Z,1.00
2022-08-07T10:05:59.390Z,0.85
2022-08-07T10:08:59.074Z,1.00
2022-08-07T10:12:02.504Z,0.77
2022-08-07T10:15:00.900Z,0.77
2022-08-07T10:18:00.961Z,0.80
2022-08-07T10:20:53.536Z,0.98
2022-08-07T10:24:06.551Z,0.90
2022-08-07T10:26:35.631Z,0.70
2022-08-07T10:29:45.542Z,0.68
2022-08-07T10:32:50.947Z,1.00
2022-08-07T10:35:56.467Z,0.80
2022-08-07T10:38:48.761Z,0.70
2022-08-07T10:41:51.470Z,1.23
2022-08-07T10:44:37.664Z,1.27
2022-08-07T10:47:26.786Z,0.95
2022-08-07T10:50:12.021Z,0.85
2022-08-07T10:53:08.285Z,1.17
2022-08-07T10:55:41.853Z,0.70
2022-08-07T10:58:46.078Z,0.85
2022-08-07T11:02:05.287Z,0.82
2022-08-07T11:04:58.075Z,1.00
2022-08-07T11:08:00.438Z,1.25
2022-08-07T11:10:37.976Z,0.65
2022-08-07T11:13:42.428Z,0.95
2022-08-07T11:16:33.769Z,0.75
2022-08-07T11:19:21.803Z,0.82
2022-08-07T11:22:18.827Z,1.00
2022-08-07T11:25:00.372Z,0.88
2022-08-07T11:28:01.369Z,0.90
2022-08-07T11:30:41.662Z,0.90
2022-08-07T11:33:54.331Z,0.90
2022-08-07T11:36:31.247Z,0.70
2022-08-07T11:39:23.317Z,1.00
2022-08-07T11:42:31.932Z,0.82
2022-08-07T11:45:50.174Z,0.60
2022-08-07T11:48:53.828Z,0.55
2022-08-07T11:51:45.027Z,0.60
2022-08-07T11:54:38.837Z,0.80
2022-08-07T11:57:57.729Z,1.15
2022-08-07T12:00:27.615Z,0.70
2022-08-07T12:03:42.252Z,0.60
2022-08-07T12:06:36.878Z,0.50
2022-08-07T12:09:16.441Z,0.50
2022-08-07T12:15:03.847Z,0.68
2022-08-07T12:17:58.609Z,0.70
2022-08-07T12:20:38.329Z,0.70
2022-08-07T12:24:05.859Z,0.65
2022-08-07T12:26:46.813Z,0.60
2022-08-07T12:29:37.983Z,0.65
2022-08-07T12:32:38.287Z,0.52
2022-08-07T12:35:10.321Z,0.30
2022-08-07T12:38:09.379Z,0.50
2022-08-07T12:40:47.406Z,0.70
2022-08-07T12:44:04.584Z,0.40
2022-08-07T12:46:26.230Z,0.73
2022-08-07T12:49:39.938Z,0.50
2022-08-07T12:52:14.522Z,0.50
2022-08-07T12:55:03.545Z,0.40
2022-08-07T12:57:39.004Z,0.65
2022-08-07T13:00:34.588Z,0.50
2022-08-07T13:03:53.563Z,0.55
2022-08-07T13:07:01.347Z,0.50
2022-08-07T13:10:10.983Z,0.50
2022-08-07T13:13:46.996Z,0.55
2022-08-07T13:16:43.158Z,0.40
2022-08-07T13:19:51.062Z,0.30
2022-08-07T13:22:31.479Z,0.40
2022-08-07T13:25:08.054Z,0.30
2022-08-07T13:28:12.433Z,0.30
2022-08-07T13:30:40.981Z,0.30
2022-08-07T13:34:30.666Z,0.30
2022-08-07T13:36:45.512Z,0.60
2022-08-07T13:40:33.387Z,0.38
2022-08-07T13:42:28.064Z,0.40
2022-08-07T13:46:06.337Z,0.40
2022-08-07T13:48:06.221Z,0.52
2022-08-07T13:50:44.130Z,0.47
2022-08-07T13:53:22.017Z,0.40
2022-08-07T13:55:54.264Z,0.40
2022-08-07T13:58:42.886Z,0.40
2022-08-07T14:01:50.854Z,0.40
2022-08-07T14:04:29.752Z,0.40
2022-08-07T14:07:09.425Z,0.40
2022-08-07T14:10:02.928Z,0.30
2022-08-07T14:12:49.191Z,0.30
2022-08-07T14:15:28.370Z,0.30
2022-08-07T14:18:28.027Z,0.30
2022-08-07T14:21:21.034Z,0.80
2022-08-07T14:24:02.225Z,0.32
2022-08-07T14:26:38.162Z,0.50
2022-08-07T14:30:08.059Z,1.20
2022-08-07T14:32:01.934Z,0.20
2022-08-07T14:34:32.210Z,0.30
2022-08-07T14:37:03.185Z,0.40
2022-08-07T14:40:15.559Z,0.30
2022-08-07T14:42:31.388Z,0.30
2022-08-07T14:45:21.354Z,0.43
2022-08-07T14:47:58.719Z,0.30
2022-08-07T14:53:17.694Z,0.28
2022-08-07T14:59:14.030Z,0.22
2022-08-07T15:01:58.378Z,0.30
2022-08-07T15:04:26.345Z,0.30
2022-08-07T15:06:57.444Z,0.30
2022-08-07T15:09:58.998Z,0.30
2022-08-07T15:12:25.978Z,0.30
2022-08-07T15:15:21.490Z,0.20
2022-08-07T15:18:02.530Z,0.30
2022-08-07T15:20:54.943Z,0.20
2022-08-07T15:25:13.102Z,0.20
2022-08-07T15:26:21.097Z,0.30
2022-08-07T15:28:59.471Z,0.20
2022-08-07T15:32:01.217Z,0.20
2022-08-07T15:34:21.567Z,0.20
2022-08-07T15:37:04.661Z,0.30
2022-08-07T15:39:57.959Z,0.20
2022-08-07T15:42:47.859Z,0.20
2022-08-07T15:45:25.037Z,0.20
2022-08-07T15:48:26.678Z,0.10
2022-08-07T15:51:09.444Z,0.30
2022-08-07T15:53:52.787Z,0.30
2022-08-07T15:56:45.120Z,0.20
2022-08-07T15:59:17.480Z,0.20
2022-08-07T16:02:02.030Z,0.30
2022-08-07T16:04:32.448Z,0.25
2022-08-07T16:07:04.723Z,0.20
2022-08-07T16:09:54.642Z,0.13
2022-08-07T16:13:04.723Z,0.20
2022-08-07T16:16:03.501Z,0.20
2022-08-07T16:18:49.809Z,0.20
2022-08-07T16:22:01.627Z,0.28
2022-08-07T16:25:10.821Z,0.15
2022-08-07T16:30:08.572Z,0.10
2022-08-07T16:31:50.709Z,0.20
2022-08-07T16:34:31.749Z,0.17
2022-08-07T16:37:02.737Z,0.10
2022-08-07T16:40:28.259Z,0.20
2022-08-07T16:43:15.815Z,0.20
2022-08-07T16:47:05.582Z,0.20
2022-08-07T16:50:29.366Z,0.20
2022-08-07T16:52:55.737Z,0.20
2022-08-07T16:55:54.381Z,0.20
2022-08-07T16:58:33.696Z,0.20
2022-08-07T17:01:34.677Z,0.32
2022-08-07T17:04:29.646Z,0.10
2022-08-07T17:07:13.658Z,0.10
2022-08-07T17:10:32.201Z,0.15
2022-08-07T17:13:18.526Z,0.20
2022-08-07T17:16:06.005Z,0.17
2022-08-07T17:18:57.552Z,0.10
2022-08-07T17:21:55.786Z,0.10
2022-08-07T17:24:40.130Z,0.10
2022-08-07T17:27:29.010Z,0.20
2022-08-07T17:30:16.011Z,0.20
2022-08-07T17:34:09.529Z,0.25
2022-08-07T17:36:26.955Z,0.20
2022-08-07T17:39:17.837Z,0.13
2022-08-07T17:42:02.225Z,0.17
2022-08-07T17:44:54.860Z,0.20
2022-08-07T17:47:44.831Z,0.10
2022-08-07T17:50:30.296Z,0.20
2022-08-07T17:52:59.827Z,0.28
2022-08-07T17:56:00.403Z,0.10
2022-08-07T17:58:40.005Z,0.20
2022-08-07T18:01:37.193Z,0.22
2022-08-07T18:04:34.457Z,0.20
2022-08-07T18:07:22.578Z,0.40
2022-08-07T18:10:06.161Z,0.15
2022-08-07T18:13:09.828Z,0.10
2022-08-07T18:15:56.649Z,0.17
2022-08-07T18:19:03.052Z,0.20
2022-08-07T18:21:53.498Z,0.20
2022-08-07T18:24:36.947Z,0.15
2022-08-07T18:27:38.916Z,0.50
2022-08-07T18:30:32.478Z,0.20
2022-08-07T18:33:16.510Z,0.25
2022-08-07T18:36:08.045Z,0.30
2022-08-07T18:38:59.262Z,0.20
2022-08-07T18:44:15.566Z,0.30
2022-08-07T18:47:01.707Z,0.30
2022-08-07T18:50:31.745Z,0.40
2022-08-07T18:53:36.896Z,0.40
2022-08-07T18:56:40.103Z,0.35
2022-08-07T19:00:32.439Z,0.20
2022-08-07T19:03:16.114Z,0.30
2022-08-07T19:06:07.504Z,0.30
2022-08-07T19:08:47.257Z,0.38
2022-08-07T19:12:05.213Z,0.30
2022-08-07T19:14:52.874Z,0.40
2022-08-07T19:18:01.173Z,0.40
2022-08-07T19:20:29.754Z,0.40
2022-08-07T19:23:17.826Z,0.40
2022-08-07T19:26:25.326Z,0.40
2022-08-07T19:30:58.843Z,0.40
2022-08-07T19:32:08.173Z,0.40
2022-08-07T19:34:34.374Z,0.60
2022-08-07T19:37:17.353Z,0.50
2022-08-07T19:39:57.843Z,0.50
2022-08-07T19:42:32.077Z,0.50
2022-08-07T19:46:07.095Z,0.60
2022-08-07T19:48:18.083Z,0.60
2022-08-07T19:50:53.102Z,1.00
2022-08-07T19:54:35.262Z,1.00
2022-08-07T19:58:01.223Z,0.98
2022-08-07T19:59:02.864Z,0.80
2022-08-07T20:01:57.019Z,0.55
2022-08-07T20:04:32.276Z,0.73
2022-08-07T20:07:09.238Z,0.80
2022-08-07T20:10:36.615Z,0.80
2022-08-07T20:12:39.459Z,0.63
2022-08-07T20:15:21.951Z,0.80
2022-08-07T20:18:01.345Z,1.10
2022-08-07T20:20:33.605Z,1.30
2022-08-07T20:23:33.084Z,0.93
2022-08-07T20:26:10.005Z,1.45
2022-08-07T20:28:43.076Z,0.80
2022-08-07T20:31:23.748Z,1.17
2022-08-07T20:33:57.693Z,1.02
2022-08-07T20:36:29.938Z,1.50
2022-08-07T20:39:11.677Z,1.48
2022-08-07T20:41:52.278Z,1.42
2022-08-07T20:44:29.671Z,2.03
2022-08-07T20:47:05.951Z,1.90
2022-08-07T20:49:58.423Z,1.70
2022-08-07T20:52:50.698Z,1.55
2022-08-07T20:55:15.768Z,1.50
2022-08-07T20:58:02.563Z,1.10
2022-08-07T21:00:44.611Z,1.48
2022-08-07T21:03:19.184Z,1.20
2022-08-07T21:05:56.850Z,0.90
2022-08-07T21:08:37.723Z,1.05
2022-08-07T21:11:14.300Z,1.02
2022-08-07T21:14:16.881Z,0.77
2022-08-07T21:17:06.667Z,0.93
2022-08-07T21:19:51.072Z,0.90
2022-08-07T21:22:28.329Z,0.80
2022-08-07T21:25:12.406Z,0.80
2022-08-07T21:28:02.151Z,1.00
2022-08-07T21:30:43.612Z,0.93
2022-08-07T21:33:22.305Z,0.68
2022-08-07T21:36:32.246Z,0.90
2022-08-07T21:39:46.415Z,0.70
2022-08-07T21:42:42.991Z,0.70
2022-08-07T21:46:11.077Z,0.65
2022-08-07T21:48:28.514Z,0.50
2022-08-07T21:51:51.233Z,0.60
2022-08-07T21:54:34.508Z,0.70
2022-08-07T21:57:44.793Z,0.77
2022-08-07T22:00:39.541Z,0.77
2022-08-07T22:03:35.369Z,0.50
2022-08-07T22:06:28.742Z,0.80
2022-08-07T22:09:25.379Z,0.60
2022-08-07T22:12:05.192Z,0.47
2022-08-07T22:16:38.994Z,0.70
2022-08-07T22:18:04.719Z,0.50
2022-08-07T22:20:49.802Z,0.63
2022-08-07T22:23:40.499Z,0.50
2022-08-07T22:26:21.712Z,0.60
2022-08-07T22:28:56.132Z,0.80
2022-08-07T22:32:06.219Z,0.60
2022-08-07T22:35:07.875Z,0.50
2022-08-07T22:38:02.829Z,0.73
2022-08-07T22:41:07.489Z,0.60
2022-08-07T22:43:45.331Z,0.52
2022-08-07T22:47:02.808Z,0.70
2022-08-07T22:49:54.076Z,0.40
2022-08-07T22:52:49.759Z,0.80
2022-08-07T22:55:29.744Z,0.65
2022-08-07T22:58:34.509Z,0.80
2022-08-07T23:01:42.179Z,0.50
2022-08-07T23:04:35.892Z,0.65
2022-08-07T23:07:47.471Z,0.50
2022-08-07T23:10:39.737Z,0.40
2022-08-07T23:13:48.682Z,0.77
2022-08-07T23:16:54.893Z,0.50
2022-08-07T23:19:59.989Z,0.50
2022-08-07T23:22:39.938Z,0.40
2022-08-07T23:25:47.337Z,0.60
2022-08-07T23:28:29.062Z,0.40
2022-08-07T23:32:49.405Z,0.40
2022-08-07T23:34:56.412Z,0.40
2022-08-07T23:38:01.601Z,0.30
2022-08-07T23:40:51.724Z,0.30
2022-08-07T23:43:39.841Z,0.30
2022-08-07T23:46:44.055Z,0.30
2022-08-07T23:49:50.960Z,0.40
2022-08-07T23:53:02.158Z,0.20
2022-08-07T23:55:53.539Z,0.20
2022-08-07T23:58:59.575Z,0.50
